sensor_id;sensor_type;location;lat;lon;timestamp;P1;durP1;ratioP1;P2;durP2;ratioP2
75012;SDS011;63567;49.956;20.130;2023-08-06T00:02:13;5.95;;;5.45;;
75012;SDS011;63567;49.956;20.130;2023-08-06T00:04:38;6.03;;;5.43;;
75012;SDS011;63567;49.956;20.130;2023-08-06T00:07:04;6.97;;;5.70;;
75012;SDS011;63567;49.956;20.130;2023-08-06T00:09:29;6.22;;;5.63;;
75012;SDS011;63567;49.956;20.130;2023-08-06T00:11:54;6.93;;;6.23;;
75012;SDS011;63567;49.956;20.130;2023-08-06T00:14:19;5.90;;;5.07;;
75012;SDS011;63567;49.956;20.130;2023-08-06T00:16:44;6.53;;;5.93;;
75012;SDS011;63567;49.956;20.130;2023-08-06T00:19:10;5.85;;;5.25;;
75012;SDS011;63567;49.956;20.130;2023-08-06T00:21:35;6.13;;;5.22;;
75012;SDS011;63567;49.956;20.130;2023-08-06T00:24:00;5.57;;;5.07;;
75012;SDS011;63567;49.956;20.130;2023-08-06T00:26:26;6.00;;;5.40;;
75012;SDS011;63567;49.956;20.130;2023-08-06T00:28:51;5.72;;;5.15;;
75012;SDS011;63567;49.956;20.130;2023-08-06T00:31:16;6.13;;;5.40;;
75012;SDS011;63567;49.956;20.130;2023-08-06T00:33:41;7.10;;;6.40;;
75012;SDS011;63567;49.956;20.130;2023-08-06T00:36:07;6.57;;;5.68;;
75012;SDS011;63567;49.956;20.130;2023-08-06T00:38:32;6.27;;;5.63;;
75012;SDS011;63567;49.956;20.130;2023-08-06T00:40:57;6.95;;;6.03;;
75012;SDS011;63567;49.956;20.130;2023-08-06T00:43:22;6.13;;;5.53;;
75012;SDS011;63567;49.956;20.130;2023-08-06T00:45:47;6.85;;;6.05;;
75012;SDS011;63567;49.956;20.130;2023-08-06T00:48:13;5.80;;;5.20;;
75012;SDS011;63567;49.956;20.130;2023-08-06T00:50:38;5.60;;;4.90;;
75012;SDS011;63567;49.956;20.130;2023-08-06T00:53:03;5.43;;;4.60;;
75012;SDS011;63567;49.956;20.130;2023-08-06T00:55:28;6.03;;;5.33;;
75012;SDS011;63567;49.956;20.130;2023-08-06T00:57:54;6.23;;;5.43;;
75012;SDS011;63567;49.956;20.130;2023-08-06T01:00:21;6.90;;;5.50;;
75012;SDS011;63567;49.956;20.130;2023-08-06T01:02:48;6.03;;;5.43;;
75012;SDS011;63567;49.956;20.130;2023-08-06T01:05:13;5.82;;;5.05;;
75012;SDS011;63567;49.956;20.130;2023-08-06T01:15:32;7.00;;;6.05;;
75012;SDS011;63567;49.956;20.130;2023-08-06T01:17:58;7.00;;;6.03;;
75012;SDS011;63567;49.956;20.130;2023-08-06T01:20:27;6.93;;;6.23;;
75012;SDS011;63567;49.956;20.130;2023-08-06T01:22:52;7.40;;;6.60;;
75012;SDS011;63567;49.956;20.130;2023-08-06T01:25:18;6.93;;;6.22;;
75012;SDS011;63567;49.956;20.130;2023-08-06T01:27:47;6.57;;;5.97;;
75012;SDS011;63567;49.956;20.130;2023-08-06T01:30:16;7.20;;;5.95;;
75012;SDS011;63567;49.956;20.130;2023-08-06T01:32:43;6.55;;;5.95;;
75012;SDS011;63567;49.956;20.130;2023-08-06T01:35:09;6.65;;;5.95;;
75012;SDS011;63567;49.956;20.130;2023-08-06T01:37:35;6.25;;;5.35;;
75012;SDS011;63567;49.956;20.130;2023-08-06T01:40:00;6.82;;;5.72;;
75012;SDS011;63567;49.956;20.130;2023-08-06T01:42:25;6.25;;;5.47;;
75012;SDS011;63567;49.956;20.130;2023-08-06T01:44:51;7.00;;;5.87;;
75012;SDS011;63567;49.956;20.130;2023-08-06T01:47:16;6.53;;;5.60;;
75012;SDS011;63567;49.956;20.130;2023-08-06T01:49:41;6.57;;;5.70;;
75012;SDS011;63567;49.956;20.130;2023-08-06T01:52:06;6.68;;;5.97;;
75012;SDS011;63567;49.956;20.130;2023-08-06T01:54:32;7.55;;;6.47;;
75012;SDS011;63567;49.956;20.130;2023-08-06T01:56:57;7.43;;;6.73;;
75012;SDS011;63567;49.956;20.130;2023-08-06T01:59:23;8.57;;;6.68;;
75012;SDS011;63567;49.956;20.130;2023-08-06T02:01:48;7.40;;;6.03;;
75012;SDS011;63567;49.956;20.130;2023-08-06T02:04:13;6.93;;;6.15;;
75012;SDS011;63567;49.956;20.130;2023-08-06T02:06:38;9.63;;;7.05;;
75012;SDS011;63567;49.956;20.130;2023-08-06T02:09:04;9.13;;;7.25;;
75012;SDS011;63567;49.956;20.130;2023-08-06T02:11:29;9.53;;;7.53;;
75012;SDS011;63567;49.956;20.130;2023-08-06T02:13:54;8.88;;;7.10;;
75012;SDS011;63567;49.956;20.130;2023-08-06T02:16:19;10.07;;;8.03;;
75012;SDS011;63567;49.956;20.130;2023-08-06T02:18:44;9.23;;;7.27;;
75012;SDS011;63567;49.956;20.130;2023-08-06T02:21:09;9.73;;;7.10;;
75012;SDS011;63567;49.956;20.130;2023-08-06T02:23:35;10.25;;;7.60;;
75012;SDS011;63567;49.956;20.130;2023-08-06T02:26:03;9.37;;;7.27;;
75012;SDS011;63567;49.956;20.130;2023-08-06T02:28:29;8.90;;;7.65;;
75012;SDS011;63567;49.956;20.130;2023-08-06T02:30:55;8.73;;;6.88;;
75012;SDS011;63567;49.956;20.130;2023-08-06T02:33:20;8.03;;;6.47;;
75012;SDS011;63567;49.956;20.130;2023-08-06T02:35:45;8.13;;;6.63;;
75012;SDS011;63567;49.956;20.130;2023-08-06T02:38:10;8.35;;;6.30;;
75012;SDS011;63567;49.956;20.130;2023-08-06T02:40:35;8.93;;;6.80;;
75012;SDS011;63567;49.956;20.130;2023-08-06T02:43:00;8.63;;;6.73;;
75012;SDS011;63567;49.956;20.130;2023-08-06T02:45:26;8.32;;;7.18;;
75012;SDS011;63567;49.956;20.130;2023-08-06T02:47:51;9.43;;;7.53;;
75012;SDS011;63567;49.956;20.130;2023-08-06T02:50:16;8.77;;;7.18;;
75012;SDS011;63567;49.956;20.130;2023-08-06T02:52:41;8.63;;;6.53;;
75012;SDS011;63567;49.956;20.130;2023-08-06T02:55:06;9.15;;;7.68;;
75012;SDS011;63567;49.956;20.130;2023-08-06T02:57:32;9.10;;;7.35;;
75012;SDS011;63567;49.956;20.130;2023-08-06T02:59:57;8.03;;;7.03;;
75012;SDS011;63567;49.956;20.130;2023-08-06T03:02:22;10.48;;;7.47;;
75012;SDS011;63567;49.956;20.130;2023-08-06T03:04:47;8.10;;;6.73;;
75012;SDS011;63567;49.956;20.130;2023-08-06T03:07:12;8.90;;;6.85;;
75012;SDS011;63567;49.956;20.130;2023-08-06T03:09:37;8.60;;;6.97;;
75012;SDS011;63567;49.956;20.130;2023-08-06T03:12:03;8.18;;;6.70;;
75012;SDS011;63567;49.956;20.130;2023-08-06T03:14:28;8.73;;;7.40;;
75012;SDS011;63567;49.956;20.130;2023-08-06T03:16:53;9.18;;;7.07;;
75012;SDS011;63567;49.956;20.130;2023-08-06T03:19:18;9.40;;;7.33;;
75012;SDS011;63567;49.956;20.130;2023-08-06T03:21:43;8.82;;;7.05;;
75012;SDS011;63567;49.956;20.130;2023-08-06T03:24:08;8.32;;;6.95;;
75012;SDS011;63567;49.956;20.130;2023-08-06T03:26:34;8.60;;;6.87;;
75012;SDS011;63567;49.956;20.130;2023-08-06T03:28:59;8.10;;;6.63;;
75012;SDS011;63567;49.956;20.130;2023-08-06T03:31:24;8.07;;;6.22;;
75012;SDS011;63567;49.956;20.130;2023-08-06T03:33:49;7.72;;;6.60;;
75012;SDS011;63567;49.956;20.130;2023-08-06T03:36:14;7.25;;;6.13;;
75012;SDS011;63567;49.956;20.130;2023-08-06T03:38:39;8.37;;;6.60;;
75012;SDS011;63567;49.956;20.130;2023-08-06T03:41:05;8.30;;;6.20;;
75012;SDS011;63567;49.956;20.130;2023-08-06T03:43:30;8.98;;;7.03;;
75012;SDS011;63567;49.956;20.130;2023-08-06T03:45:55;8.60;;;6.60;;
75012;SDS011;63567;49.956;20.130;2023-08-06T03:48:20;7.90;;;6.90;;
75012;SDS011;63567;49.956;20.130;2023-08-06T03:50:45;7.47;;;6.60;;
75012;SDS011;63567;49.956;20.130;2023-08-06T03:53:11;6.80;;;6.10;;
75012;SDS011;63567;49.956;20.130;2023-08-06T03:55:36;7.10;;;6.33;;
75012;SDS011;63567;49.956;20.130;2023-08-06T03:58:01;7.38;;;6.03;;
75012;SDS011;63567;49.956;20.130;2023-08-06T04:00:26;8.20;;;6.57;;
75012;SDS011;63567;49.956;20.130;2023-08-06T04:02:51;7.40;;;6.13;;
75012;SDS011;63567;49.956;20.130;2023-08-06T04:05:16;6.40;;;5.70;;
75012;SDS011;63567;49.956;20.130;2023-08-06T04:07:42;5.90;;;5.30;;
75012;SDS011;63567;49.956;20.130;2023-08-06T04:10:07;6.03;;;5.43;;
75012;SDS011;63567;49.956;20.130;2023-08-06T04:12:33;6.10;;;5.40;;
75012;SDS011;63567;49.956;20.130;2023-08-06T04:15:01;6.20;;;5.57;;
75012;SDS011;63567;49.956;20.130;2023-08-06T04:17:27;6.43;;;4.93;;
75012;SDS011;63567;49.956;20.130;2023-08-06T04:19:52;5.27;;;4.70;;
75012;SDS011;63567;49.956;20.130;2023-08-06T04:22:18;6.45;;;4.70;;
75012;SDS011;63567;49.956;20.130;2023-08-06T04:24:43;5.13;;;4.63;;
75012;SDS011;63567;49.956;20.130;2023-08-06T04:27:09;4.37;;;3.93;;
75012;SDS011;63567;49.956;20.130;2023-08-06T04:29:34;5.15;;;4.47;;
75012;SDS011;63567;49.956;20.130;2023-08-06T04:31:59;4.60;;;4.20;;
75012;SDS011;63567;49.956;20.130;2023-08-06T04:34:24;4.63;;;3.97;;
75012;SDS011;63567;49.956;20.130;2023-08-06T04:36:49;4.40;;;4.00;;
75012;SDS011;63567;49.956;20.130;2023-08-06T04:39:15;3.67;;;3.33;;
75012;SDS011;63567;49.956;20.130;2023-08-06T04:41:40;4.88;;;4.47;;
75012;SDS011;63567;49.956;20.130;2023-08-06T04:44:05;4.25;;;3.85;;
75012;SDS011;63567;49.956;20.130;2023-08-06T04:46:30;4.22;;;3.83;;
75012;SDS011;63567;49.956;20.130;2023-08-06T04:48:55;3.85;;;3.40;;
75012;SDS011;63567;49.956;20.130;2023-08-06T04:51:20;4.47;;;3.72;;
75012;SDS011;63567;49.956;20.130;2023-08-06T04:53:45;4.20;;;3.60;;
75012;SDS011;63567;49.956;20.130;2023-08-06T04:56:11;4.10;;;3.67;;
75012;SDS011;63567;49.956;20.130;2023-08-06T04:58:36;3.85;;;3.38;;
75012;SDS011;63567;49.956;20.130;2023-08-06T05:01:01;3.87;;;3.07;;
75012;SDS011;63567;49.956;20.130;2023-08-06T05:03:26;5.32;;;3.58;;
75012;SDS011;63567;49.956;20.130;2023-08-06T05:05:51;4.20;;;3.20;;
75012;SDS011;63567;49.956;20.130;2023-08-06T05:08:16;4.27;;;3.60;;
75012;SDS011;63567;49.956;20.130;2023-08-06T05:10:42;4.10;;;3.20;;
75012;SDS011;63567;49.956;20.130;2023-08-06T05:13:08;3.97;;;3.47;;
75012;SDS011;63567;49.956;20.130;2023-08-06T05:15:33;4.23;;;3.10;;
75012;SDS011;63567;49.956;20.130;2023-08-06T05:17:58;3.88;;;3.25;;
75012;SDS011;63567;49.956;20.130;2023-08-06T05:20:23;3.92;;;3.22;;
75012;SDS011;63567;49.956;20.130;2023-08-06T05:22:48;4.15;;;3.50;;
75012;SDS011;63567;49.956;20.130;2023-08-06T05:25:14;5.00;;;3.60;;
75012;SDS011;63567;49.956;20.130;2023-08-06T05:27:39;4.68;;;3.88;;
75012;SDS011;63567;49.956;20.130;2023-08-06T05:30:05;4.00;;;3.23;;
75012;SDS011;63567;49.956;20.130;2023-08-06T05:32:30;4.60;;;3.72;;
75012;SDS011;63567;49.956;20.130;2023-08-06T05:34:55;4.38;;;3.38;;
75012;SDS011;63567;49.956;20.130;2023-08-06T05:37:20;4.73;;;3.90;;
75012;SDS011;63567;49.956;20.130;2023-08-06T05:39:46;5.78;;;4.25;;
75012;SDS011;63567;49.956;20.130;2023-08-06T05:42:11;5.13;;;4.07;;
75012;SDS011;63567;49.956;20.130;2023-08-06T05:44:36;4.75;;;3.63;;
75012;SDS011;63567;49.956;20.130;2023-08-06T05:47:01;4.55;;;3.75;;
75012;SDS011;63567;49.956;20.130;2023-08-06T05:49:26;5.33;;;4.20;;
75012;SDS011;63567;49.956;20.130;2023-08-06T05:51:51;5.13;;;3.90;;
75012;SDS011;63567;49.956;20.130;2023-08-06T05:54:18;4.80;;;3.60;;
75012;SDS011;63567;49.956;20.130;2023-08-06T05:56:43;4.90;;;3.83;;
75012;SDS011;63567;49.956;20.130;2023-08-06T05:59:08;5.87;;;3.87;;
75012;SDS011;63567;49.956;20.130;2023-08-06T06:01:33;5.67;;;3.90;;
75012;SDS011;63567;49.956;20.130;2023-08-06T06:03:58;4.57;;;3.70;;
75012;SDS011;63567;49.956;20.130;2023-08-06T06:06:24;5.70;;;4.00;;
75012;SDS011;63567;49.956;20.130;2023-08-06T06:08:49;5.15;;;4.28;;
75012;SDS011;63567;49.956;20.130;2023-08-06T06:11:14;4.65;;;3.85;;
75012;SDS011;63567;49.956;20.130;2023-08-06T06:13:39;5.10;;;4.13;;
75012;SDS011;63567;49.956;20.130;2023-08-06T06:16:05;4.50;;;3.70;;
75012;SDS011;63567;49.956;20.130;2023-08-06T06:18:30;5.37;;;4.10;;
75012;SDS011;63567;49.956;20.130;2023-08-06T06:20:55;5.13;;;3.67;;
75012;SDS011;63567;49.956;20.130;2023-08-06T06:23:20;6.53;;;4.72;;
75012;SDS011;63567;49.956;20.130;2023-08-06T06:25:49;5.15;;;4.22;;
75012;SDS011;63567;49.956;20.130;2023-08-06T06:28:16;5.20;;;4.38;;
75012;SDS011;63567;49.956;20.130;2023-08-06T06:30:41;5.20;;;4.40;;
75012;SDS011;63567;49.956;20.130;2023-08-06T06:33:07;5.35;;;4.03;;
75012;SDS011;63567;49.956;20.130;2023-08-06T06:35:32;5.07;;;4.03;;
75012;SDS011;63567;49.956;20.130;2023-08-06T06:37:57;6.05;;;4.38;;
75012;SDS011;63567;49.956;20.130;2023-08-06T06:40:22;5.68;;;4.30;;
75012;SDS011;63567;49.956;20.130;2023-08-06T06:42:47;6.20;;;4.87;;
75012;SDS011;63567;49.956;20.130;2023-08-06T06:45:13;5.45;;;4.20;;
75012;SDS011;63567;49.956;20.130;2023-08-06T06:47:38;6.50;;;4.50;;
75012;SDS011;63567;49.956;20.130;2023-08-06T06:50:03;5.97;;;4.57;;
75012;SDS011;63567;49.956;20.130;2023-08-06T06:52:29;6.10;;;4.70;;
75012;SDS011;63567;49.956;20.130;2023-08-06T06:54:54;6.18;;;4.82;;
75012;SDS011;63567;49.956;20.130;2023-08-06T06:57:19;5.90;;;4.72;;
75012;SDS011;63567;49.956;20.130;2023-08-06T06:59:44;6.53;;;4.82;;
75012;SDS011;63567;49.956;20.130;2023-08-06T07:02:09;5.72;;;4.55;;
75012;SDS011;63567;49.956;20.130;2023-08-06T07:04:35;6.30;;;4.90;;
75012;SDS011;63567;49.956;20.130;2023-08-06T07:07:00;6.30;;;5.00;;
75012;SDS011;63567;49.956;20.130;2023-08-06T07:09:25;7.15;;;5.30;;
75012;SDS011;63567;49.956;20.130;2023-08-06T07:11:50;6.57;;;5.53;;
75012;SDS011;63567;49.956;20.130;2023-08-06T07:14:15;6.60;;;5.18;;
75012;SDS011;63567;49.956;20.130;2023-08-06T07:16:40;6.57;;;5.50;;
75012;SDS011;63567;49.956;20.130;2023-08-06T07:19:05;7.10;;;5.75;;
75012;SDS011;63567;49.956;20.130;2023-08-06T07:21:31;7.63;;;6.07;;
75012;SDS011;63567;49.956;20.130;2023-08-06T07:23:56;7.22;;;6.07;;
75012;SDS011;63567;49.956;20.130;2023-08-06T07:26:22;7.78;;;5.60;;
75012;SDS011;63567;49.956;20.130;2023-08-06T07:28:47;8.02;;;6.30;;
75012;SDS011;63567;49.956;20.130;2023-08-06T07:31:12;6.97;;;5.50;;
75012;SDS011;63567;49.956;20.130;2023-08-06T07:33:37;7.63;;;6.33;;
75012;SDS011;63567;49.956;20.130;2023-08-06T07:36:10;7.93;;;6.30;;
75012;SDS011;63567;49.956;20.130;2023-08-06T07:38:36;7.95;;;6.20;;
75012;SDS011;63567;49.956;20.130;2023-08-06T07:41:01;7.68;;;6.40;;
75012;SDS011;63567;49.956;20.130;2023-08-06T07:43:26;6.93;;;5.63;;
75012;SDS011;63567;49.956;20.130;2023-08-06T07:45:52;7.37;;;6.37;;
75012;SDS011;63567;49.956;20.130;2023-08-06T07:48:17;8.10;;;6.37;;
75012;SDS011;63567;49.956;20.130;2023-08-06T07:50:42;7.28;;;6.20;;
75012;SDS011;63567;49.956;20.130;2023-08-06T07:53:08;7.85;;;6.53;;
75012;SDS011;63567;49.956;20.130;2023-08-06T07:55:33;8.30;;;6.65;;
75012;SDS011;63567;49.956;20.130;2023-08-06T07:57:58;8.07;;;6.30;;
75012;SDS011;63567;49.956;20.130;2023-08-06T08:00:23;8.20;;;6.95;;
75012;SDS011;63567;49.956;20.130;2023-08-06T08:02:48;9.17;;;7.47;;
75012;SDS011;63567;49.956;20.130;2023-08-06T08:05:13;8.95;;;7.07;;
75012;SDS011;63567;49.956;20.130;2023-08-06T08:07:39;7.70;;;6.53;;
75012;SDS011;63567;49.956;20.130;2023-08-06T08:10:04;3.53;;;2.73;;
75012;SDS011;63567;49.956;20.130;2023-08-06T08:12:30;2.40;;;1.48;;
75012;SDS011;63567;49.956;20.130;2023-08-06T08:14:55;1.50;;;0.82;;
75012;SDS011;63567;49.956;20.130;2023-08-06T08:17:20;1.13;;;0.63;;
75012;SDS011;63567;49.956;20.130;2023-08-06T08:19:45;1.42;;;0.43;;
75012;SDS011;63567;49.956;20.130;2023-08-06T08:22:10;0.80;;;0.30;;
75012;SDS011;63567;49.956;20.130;2023-08-06T08:24:36;0.80;;;0.22;;
75012;SDS011;63567;49.956;20.130;2023-08-06T08:27:01;2.93;;;0.37;;
75012;SDS011;63567;49.956;20.130;2023-08-06T08:29:26;0.90;;;0.40;;
75012;SDS011;63567;49.956;20.130;2023-08-06T08:31:51;0.83;;;0.30;;
75012;SDS011;63567;49.956;20.130;2023-08-06T08:34:16;0.70;;;0.25;;
75012;SDS011;63567;49.956;20.130;2023-08-06T08:36:42;1.02;;;0.30;;
75012;SDS011;63567;49.956;20.130;2023-08-06T08:39:07;1.15;;;0.28;;
75012;SDS011;63567;49.956;20.130;2023-08-06T08:41:33;0.57;;;0.20;;
75012;SDS011;63567;49.956;20.130;2023-08-06T08:43:58;1.08;;;0.20;;
75012;SDS011;63567;49.956;20.130;2023-08-06T08:46:24;1.08;;;0.40;;
75012;SDS011;63567;49.956;20.130;2023-08-06T08:48:50;0.30;;;0.10;;
75012;SDS011;63567;49.956;20.130;2023-08-06T08:51:16;0.68;;;0.30;;
75012;SDS011;63567;49.956;20.130;2023-08-06T08:53:41;0.75;;;0.38;;
75012;SDS011;63567;49.956;20.130;2023-08-06T08:56:08;2.28;;;0.88;;
75012;SDS011;63567;49.956;20.130;2023-08-06T08:58:34;2.13;;;0.73;;
75012;SDS011;63567;49.956;20.130;2023-08-06T09:01:00;2.42;;;0.90;;
75012;SDS011;63567;49.956;20.130;2023-08-06T09:03:25;2.15;;;0.82;;
75012;SDS011;63567;49.956;20.130;2023-08-06T09:05:51;1.80;;;0.77;;
75012;SDS011;63567;49.956;20.130;2023-08-06T09:08:18;1.58;;;0.70;;
75012;SDS011;63567;49.956;20.130;2023-08-06T09:10:44;1.60;;;0.60;;
75012;SDS011;63567;49.956;20.130;2023-08-06T09:13:09;0.80;;;0.40;;
75012;SDS011;63567;49.956;20.130;2023-08-06T09:15:37;0.70;;;0.22;;
75012;SDS011;63567;49.956;20.130;2023-08-06T09:18:09;0.90;;;0.40;;
75012;SDS011;63567;49.956;20.130;2023-08-06T09:20:34;0.70;;;0.22;;
75012;SDS011;63567;49.956;20.130;2023-08-06T09:23:06;1.02;;;0.40;;
75012;SDS011;63567;49.956;20.130;2023-08-06T09:25:31;0.82;;;0.30;;
75012;SDS011;63567;49.956;20.130;2023-08-06T09:27:56;0.80;;;0.40;;
75012;SDS011;63567;49.956;20.130;2023-08-06T09:30:28;1.27;;;0.40;;
75012;SDS011;63567;49.956;20.130;2023-08-06T09:32:54;1.27;;;0.22;;
75012;SDS011;63567;49.956;20.130;2023-08-06T09:35:19;0.77;;;0.40;;
75012;SDS011;63567;49.956;20.130;2023-08-06T09:37:45;0.75;;;0.30;;
75012;SDS011;63567;49.956;20.130;2023-08-06T09:40:26;0.80;;;0.30;;
75012;SDS011;63567;49.956;20.130;2023-08-06T09:42:52;1.10;;;0.30;;
75012;SDS011;63567;49.956;20.130;2023-08-06T09:45:17;0.63;;;0.30;;
75012;SDS011;63567;49.956;20.130;2023-08-06T09:47:42;0.90;;;0.30;;
75012;SDS011;63567;49.956;20.130;2023-08-06T09:50:17;0.70;;;0.10;;
75012;SDS011;63567;49.956;20.130;2023-08-06T09:52:43;0.50;;;0.20;;
75012;SDS011;63567;49.956;20.130;2023-08-06T09:55:09;0.60;;;0.20;;
75012;SDS011;63567;49.956;20.130;2023-08-06T09:57:35;0.80;;;0.20;;
75012;SDS011;63567;49.956;20.130;2023-08-06T10:00:01;0.73;;;0.30;;
75012;SDS011;63567;49.956;20.130;2023-08-06T10:02:26;0.73;;;0.22;;
75012;SDS011;63567;49.956;20.130;2023-08-06T10:04:52;0.70;;;0.30;;
75012;SDS011;63567;49.956;20.130;2023-08-06T10:07:17;0.77;;;0.20;;
75012;SDS011;63567;49.956;20.130;2023-08-06T10:09:43;0.82;;;0.30;;
75012;SDS011;63567;49.956;20.130;2023-08-06T10:12:08;0.70;;;0.20;;
75012;SDS011;63567;49.956;20.130;2023-08-06T10:14:35;0.80;;;0.30;;
75012;SDS011;63567;49.956;20.130;2023-08-06T10:17:02;0.80;;;0.43;;
75012;SDS011;63567;49.956;20.130;2023-08-06T10:19:28;0.80;;;0.30;;
75012;SDS011;63567;49.956;20.130;2023-08-06T10:27:12;0.68;;;0.40;;
75012;SDS011;63567;49.956;20.130;2023-08-06T10:29:37;0.83;;;0.50;;
75012;SDS011;63567;49.956;20.130;2023-08-06T10:32:03;0.77;;;0.30;;
75012;SDS011;63567;49.956;20.130;2023-08-06T10:37:15;0.77;;;0.55;;
75012;SDS011;63567;49.956;20.130;2023-08-06T10:39:47;0.75;;;0.40;;
75012;SDS011;63567;49.956;20.130;2023-08-06T10:42:22;1.33;;;0.50;;
75012;SDS011;63567;49.956;20.130;2023-08-06T10:47:33;0.90;;;0.40;;
75012;SDS011;63567;49.956;20.130;2023-08-06T10:50:02;0.98;;;0.45;;
75012;SDS011;63567;49.956;20.130;2023-08-06T10:52:28;0.85;;;0.30;;
75012;SDS011;63567;49.956;20.130;2023-08-06T10:54:54;0.93;;;0.40;;
75012;SDS011;63567;49.956;20.130;2023-08-06T10:57:19;0.70;;;0.30;;
75012;SDS011;63567;49.956;20.130;2023-08-06T10:59:44;0.80;;;0.50;;
75012;SDS011;63567;49.956;20.130;2023-08-06T11:02:09;0.67;;;0.27;;
75012;SDS011;63567;49.956;20.130;2023-08-06T11:04:35;0.40;;;0.20;;
75012;SDS011;63567;49.956;20.130;2023-08-06T11:07:00;1.80;;;0.40;;
75012;SDS011;63567;49.956;20.130;2023-08-06T11:09:25;0.70;;;0.30;;
75012;SDS011;63567;49.956;20.130;2023-08-06T11:11:51;0.60;;;0.30;;
75012;SDS011;63567;49.956;20.130;2023-08-06T11:14:16;0.57;;;0.27;;
75012;SDS011;63567;49.956;20.130;2023-08-06T11:16:41;0.83;;;0.33;;
75012;SDS011;63567;49.956;20.130;2023-08-06T11:19:07;1.03;;;0.40;;
75012;SDS011;63567;49.956;20.130;2023-08-06T11:21:33;1.00;;;0.30;;
75012;SDS011;63567;49.956;20.130;2023-08-06T11:23:58;0.90;;;0.43;;
75012;SDS011;63567;49.956;20.130;2023-08-06T11:26:23;0.63;;;0.40;;
75012;SDS011;63567;49.956;20.130;2023-08-06T11:28:49;1.20;;;0.40;;
75012;SDS011;63567;49.956;20.130;2023-08-06T11:31:20;1.02;;;0.40;;
75012;SDS011;63567;49.956;20.130;2023-08-06T11:33:45;0.80;;;0.40;;
75012;SDS011;63567;49.956;20.130;2023-08-06T11:36:11;1.00;;;0.47;;
75012;SDS011;63567;49.956;20.130;2023-08-06T11:38:36;0.90;;;0.57;;
75012;SDS011;63567;49.956;20.130;2023-08-06T11:41:01;1.30;;;0.60;;
75012;SDS011;63567;49.956;20.130;2023-08-06T11:43:26;1.17;;;0.93;;
75012;SDS011;63567;49.956;20.130;2023-08-06T11:45:55;1.17;;;0.50;;
75012;SDS011;63567;49.956;20.130;2023-08-06T11:48:20;1.13;;;0.40;;
75012;SDS011;63567;49.956;20.130;2023-08-06T11:50:45;0.70;;;0.30;;
75012;SDS011;63567;49.956;20.130;2023-08-06T11:53:13;1.17;;;0.47;;
75012;SDS011;63567;49.956;20.130;2023-08-06T11:55:39;0.93;;;0.40;;
75012;SDS011;63567;49.956;20.130;2023-08-06T11:58:04;0.80;;;0.30;;
75012;SDS011;63567;49.956;20.130;2023-08-06T12:00:30;0.60;;;0.23;;
75012;SDS011;63567;49.956;20.130;2023-08-06T12:02:55;0.57;;;0.20;;
75012;SDS011;63567;49.956;20.130;2023-08-06T12:05:21;0.90;;;0.32;;
75012;SDS011;63567;49.956;20.130;2023-08-06T12:10:15;0.95;;;0.50;;
75012;SDS011;63567;49.956;20.130;2023-08-06T12:12:41;0.45;;;0.10;;
75012;SDS011;63567;49.956;20.130;2023-08-06T12:15:06;0.87;;;0.30;;
75012;SDS011;63567;49.956;20.130;2023-08-06T12:17:32;0.82;;;0.38;;
75012;SDS011;63567;49.956;20.130;2023-08-06T12:19:57;0.88;;;0.30;;
75012;SDS011;63567;49.956;20.130;2023-08-06T12:22:22;0.70;;;0.20;;
75012;SDS011;63567;49.956;20.130;2023-08-06T12:24:47;2.93;;;0.53;;
75012;SDS011;63567;49.956;20.130;2023-08-06T12:27:13;0.80;;;0.30;;
75012;SDS011;63567;49.956;20.130;2023-08-06T12:29:42;0.50;;;0.20;;
75012;SDS011;63567;49.956;20.130;2023-08-06T12:32:10;0.60;;;0.20;;
75012;SDS011;63567;49.956;20.130;2023-08-06T12:34:35;0.60;;;0.25;;
75012;SDS011;63567;49.956;20.130;2023-08-06T12:37:01;0.50;;;0.10;;
75012;SDS011;63567;49.956;20.130;2023-08-06T12:39:27;0.90;;;0.20;;
75012;SDS011;63567;49.956;20.130;2023-08-06T12:41:53;0.55;;;0.20;;
75012;SDS011;63567;49.956;20.130;2023-08-06T12:44:19;0.60;;;0.10;;
75012;SDS011;63567;49.956;20.130;2023-08-06T12:46:44;0.50;;;0.20;;
75012;SDS011;63567;49.956;20.130;2023-08-06T12:49:09;0.70;;;0.10;;
75012;SDS011;63567;49.956;20.130;2023-08-06T12:51:34;0.60;;;0.20;;
75012;SDS011;63567;49.956;20.130;2023-08-06T12:53:59;0.50;;;0.10;;
75012;SDS011;63567;49.956;20.130;2023-08-06T12:56:25;0.90;;;0.17;;
75012;SDS011;63567;49.956;20.130;2023-08-06T12:58:50;0.60;;;0.23;;
75012;SDS011;63567;49.956;20.130;2023-08-06T13:01:15;0.80;;;0.20;;
75012;SDS011;63567;49.956;20.130;2023-08-06T13:03:40;1.00;;;0.30;;
75012;SDS011;63567;49.956;20.130;2023-08-06T13:06:05;0.80;;;0.10;;
75012;SDS011;63567;49.956;20.130;2023-08-06T13:08:30;0.97;;;0.17;;
75012;SDS011;63567;49.956;20.130;2023-08-06T13:10:56;0.57;;;0.20;;
75012;SDS011;63567;49.956;20.130;2023-08-06T13:13:21;0.70;;;0.20;;
75012;SDS011;63567;49.956;20.130;2023-08-06T13:15:46;0.57;;;0.10;;
75012;SDS011;63567;49.956;20.130;2023-08-06T13:18:11;0.35;;;0.10;;
75012;SDS011;63567;49.956;20.130;2023-08-06T13:20:38;0.47;;;0.10;;
75012;SDS011;63567;49.956;20.130;2023-08-06T13:23:03;0.60;;;0.20;;
75012;SDS011;63567;49.956;20.130;2023-08-06T13:25:28;0.65;;;0.20;;
75012;SDS011;63567;49.956;20.130;2023-08-06T13:27:53;0.50;;;0.10;;
75012;SDS011;63567;49.956;20.130;2023-08-06T13:30:19;0.90;;;0.20;;
75012;SDS011;63567;49.956;20.130;2023-08-06T13:32:44;0.70;;;0.30;;
75012;SDS011;63567;49.956;20.130;2023-08-06T13:35:10;0.20;;;0.10;;
75012;SDS011;63567;49.956;20.130;2023-08-06T13:37:35;0.50;;;0.20;;
75012;SDS011;63567;49.956;20.130;2023-08-06T13:40:00;1.38;;;0.20;;
75012;SDS011;63567;49.956;20.130;2023-08-06T13:42:25;0.70;;;0.20;;
75012;SDS011;63567;49.956;20.130;2023-08-06T13:44:50;0.63;;;0.20;;
75012;SDS011;63567;49.956;20.130;2023-08-06T13:47:15;0.85;;;0.45;;
75012;SDS011;63567;49.956;20.130;2023-08-06T13:49:40;0.80;;;0.30;;
75012;SDS011;63567;49.956;20.130;2023-08-06T13:52:05;0.77;;;0.20;;
75012;SDS011;63567;49.956;20.130;2023-08-06T13:54:31;1.58;;;0.30;;
75012;SDS011;63567;49.956;20.130;2023-08-06T13:56:56;0.80;;;0.20;;
75012;SDS011;63567;49.956;20.130;2023-08-06T13:59:21;1.00;;;0.40;;
75012;SDS011;63567;49.956;20.130;2023-08-06T14:01:49;1.10;;;0.30;;
75012;SDS011;63567;49.956;20.130;2023-08-06T14:04:14;1.27;;;0.30;;
75012;SDS011;63567;49.956;20.130;2023-08-06T14:06:39;1.30;;;0.32;;
75012;SDS011;63567;49.956;20.130;2023-08-06T14:09:04;1.73;;;0.52;;
75012;SDS011;63567;49.956;20.130;2023-08-06T14:11:29;1.80;;;0.57;;
75012;SDS011;63567;49.956;20.130;2023-08-06T14:13:55;1.70;;;0.47;;
75012;SDS011;63567;49.956;20.130;2023-08-06T14:16:20;0.90;;;0.40;;
75012;SDS011;63567;49.956;20.130;2023-08-06T14:18:45;1.10;;;0.43;;
75012;SDS011;63567;49.956;20.130;2023-08-06T14:21:10;1.00;;;0.40;;
75012;SDS011;63567;49.956;20.130;2023-08-06T14:23:35;0.93;;;0.30;;
75012;SDS011;63567;49.956;20.130;2023-08-06T14:26:01;0.88;;;0.28;;
75012;SDS011;63567;49.956;20.130;2023-08-06T14:28:26;3.55;;;0.40;;
75012;SDS011;63567;49.956;20.130;2023-08-06T14:30:51;1.30;;;0.50;;
75012;SDS011;63567;49.956;20.130;2023-08-06T14:33:16;1.00;;;0.40;;
75012;SDS011;63567;49.956;20.130;2023-08-06T14:35:41;1.30;;;0.60;;
75012;SDS011;63567;49.956;20.130;2023-08-06T14:38:06;0.83;;;0.40;;
75012;SDS011;63567;49.956;20.130;2023-08-06T14:40:32;0.80;;;0.40;;
75012;SDS011;63567;49.956;20.130;2023-08-06T14:43:02;1.20;;;0.47;;
75012;SDS011;63567;49.956;20.130;2023-08-06T14:45:27;1.17;;;0.53;;